createdAt,value
2019-03-27T00:04:50.249Z,86.70
2019-03-27T00:09:54.306Z,86.70
2019-03-27T00:15:11.581Z,86.80
2019-03-27T00:20:08.314Z,87.00
2019-03-27T00:25:11.717Z,87.40
2019-03-27T00:30:15.208Z,87.50
2019-03-27T00:35:19.015Z,87.70
2019-03-27T00:40:24.098Z,87.90
2019-03-27T00:45:27.472Z,87.90
2019-03-27T00:50:30.868Z,88.00
2019-03-27T00:55:34.220Z,88.70
2019-03-27T01:00:47.689Z,89.10
2019-03-27T01:05:51.212Z,89.80
2019-03-27T01:10:56.210Z,89.10
2019-03-27T01:15:59.876Z,89.10
2019-03-27T01:21:04.968Z,89.20
2019-03-27T01:26:08.380Z,89.40
2019-03-27T01:31:11.784Z,89.40
2019-03-27T01:36:16.807Z,89.90
2019-03-27T01:41:21.663Z,89.70
2019-03-27T01:46:25.500Z,90.00
2019-03-27T01:51:28.857Z,90.00
2019-03-27T01:56:34.005Z,90.10
2019-03-27T02:01:37.974Z,90.20
2019-03-27T02:06:41.367Z,90.20
2019-03-27T02:11:44.697Z,90.30
2019-03-27T02:28:15.756Z,90.50
2019-03-27T02:33:21.041Z,90.60
2019-03-27T02:38:24.400Z,90.70
2019-03-27T02:43:27.836Z,90.70
2019-03-27T02:48:31.911Z,90.70
2019-03-27T02:53:36.586Z,90.70
2019-03-27T02:58:40.306Z,90.70
2019-03-27T03:03:44.410Z,90.80
2019-03-27T03:08:48.647Z,90.90
2019-03-27T03:13:53.071Z,90.90
2019-03-27T03:18:57.250Z,91.10
2019-03-27T03:24:00.567Z,91.10
2019-03-27T03:29:04.000Z,91.10
2019-03-27T03:34:10.884Z,91.20
2019-03-27T03:39:14.247Z,91.30
2019-03-27T03:44:18.650Z,91.30
2019-03-27T03:49:21.992Z,91.40
2019-03-27T03:54:26.100Z,91.20
2019-03-27T03:59:29.437Z,91.20
2019-03-27T04:04:33.124Z,91.10
2019-03-27T04:09:37.681Z,91.10
2019-03-27T04:14:41.199Z,91.10
2019-03-27T04:19:44.598Z,91.10
2019-03-27T04:24:49.721Z,91.20
2019-03-27T04:29:53.634Z,91.20
2019-03-27T04:34:57.350Z,91.20
2019-03-27T04:40:00.772Z,91.10
2019-03-27T04:45:06.503Z,91.00
2019-03-27T04:50:09.900Z,91.10
2019-03-27T04:55:13.288Z,91.10
2019-03-27T05:00:18.717Z,91.00
2019-03-27T05:05:22.428Z,91.00
2019-03-27T05:10:26.941Z,90.90
2019-03-27T05:15:32.960Z,90.90
2019-03-27T05:20:36.375Z,90.80
2019-03-27T05:25:40.042Z,90.70
2019-03-27T05:30:43.439Z,90.60
2019-03-27T05:35:48.397Z,90.50
2019-03-27T05:40:51.719Z,90.30
2019-03-27T05:45:55.037Z,90.10
2019-03-27T05:50:58.337Z,90.00
2019-03-27T05:56:02.181Z,89.80
2019-03-27T06:01:05.583Z,89.20
2019-03-27T06:06:09.258Z,88.70
2019-03-27T06:11:12.574Z,87.90
2019-03-27T06:16:16.339Z,87.50
2019-03-27T06:21:19.719Z,86.00
2019-03-27T06:26:31.829Z,83.60
2019-03-27T06:31:35.364Z,83.40
2019-03-27T06:36:40.005Z,83.20
2019-03-27T06:41:43.417Z,82.70
2019-03-27T06:46:50.501Z,83.10
2019-03-27T06:51:53.817Z,80.50
2019-03-27T06:57:01.017Z,79.50
2019-03-27T07:02:06.333Z,80.10
2019-03-27T07:07:11.462Z,79.80
2019-03-27T07:12:20.955Z,79.80
2019-03-27T07:17:20.662Z,79.20
2019-03-27T07:22:24.086Z,79.40
2019-03-27T07:27:30.174Z,75.30
2019-03-27T07:32:35.008Z,74.10
2019-03-27T07:37:45.474Z,74.70
2019-03-27T07:42:49.195Z,75.20
2019-03-27T07:47:54.297Z,76.30
2019-03-27T07:52:58.676Z,75.70
2019-03-27T07:58:03.510Z,74.90
2019-03-27T08:03:07.291Z,75.60
2019-03-27T08:08:11.728Z,75.10
2019-03-27T08:13:15.652Z,74.90
2019-03-27T08:18:19.897Z,73.70
2019-03-27T08:23:26.934Z,72.70
2019-03-27T08:28:30.801Z,71.20
2019-03-27T08:33:34.114Z,69.90
2019-03-27T08:38:39.278Z,67.50
2019-03-27T08:43:44.334Z,59.60
2019-03-27T08:48:48.598Z,49.90
2019-03-27T08:53:58.720Z,42.00
2019-03-27T08:59:07.290Z,37.70
2019-03-27T09:04:10.679Z,34.10
2019-03-27T09:09:14.285Z,31.50
2019-03-27T09:14:18.330Z,29.80
2019-03-27T09:19:34.510Z,29.70
2019-03-27T09:24:30.394Z,30.30
2019-03-27T09:29:34.727Z,29.60
2019-03-27T09:34:38.040Z,29.70
2019-03-27T09:39:44.101Z,30.20
2019-03-27T09:44:49.563Z,30.90
2019-03-27T09:49:52.926Z,31.20
2019-03-27T09:54:57.602Z,31.50
2019-03-27T10:00:02.663Z,30.40
2019-03-27T10:05:09.336Z,29.50
2019-03-27T10:10:12.647Z,29.50
2019-03-27T10:15:18.127Z,28.20
2019-03-27T10:20:21.440Z,27.40
2019-03-27T10:25:26.680Z,23.70
2019-03-27T10:30:30.843Z,18.10
2019-03-27T10:35:34.345Z,14.00
2019-03-27T10:40:38.947Z,11.30
2019-03-27T10:45:42.288Z,12.40
2019-03-27T10:50:46.794Z,13.20
2019-03-27T10:55:50.137Z,14.80
2019-03-27T11:00:53.676Z,15.20
2019-03-27T11:05:57.144Z,13.50
2019-03-27T11:11:00.609Z,16.00
2019-03-27T11:16:04.612Z,16.00
2019-03-27T11:21:07.981Z,15.30
2019-03-27T11:26:14.009Z,15.40
2019-03-27T11:31:21.634Z,17.40
2019-03-27T11:36:27.484Z,20.10
2019-03-27T11:41:34.499Z,23.50
2019-03-27T11:46:41.304Z,24.30
2019-03-27T11:51:45.673Z,24.60
2019-03-27T11:56:54.715Z,23.50
2019-03-27T12:02:00.039Z,23.30
2019-03-27T12:07:07.279Z,24.10
2019-03-27T12:12:13.739Z,25.20
2019-03-27T12:17:20.252Z,25.30
2019-03-27T12:22:28.124Z,24.60
2019-03-27T12:27:31.996Z,16.00
2019-03-27T12:32:36.235Z,10.70
2019-03-27T12:37:39.693Z,7.90
2019-03-27T12:42:43.667Z,7.00
2019-03-27T12:47:49.114Z,6.60
2019-03-27T12:52:54.262Z,6.20
2019-03-27T12:58:01.814Z,6.10
2019-03-27T13:03:07.672Z,6.30
2019-03-27T13:08:14.488Z,5.60
2019-03-27T13:13:20.720Z,5.30
2019-03-27T13:18:26.305Z,5.40
2019-03-27T13:23:32.586Z,5.70
2019-03-27T13:28:48.110Z,5.30
2019-03-27T13:33:43.114Z,5.60
2019-03-27T13:38:46.553Z,6.30
2019-03-27T13:43:58.848Z,11.70
2019-03-27T13:49:05.134Z,16.50
2019-03-27T13:54:14.156Z,20.30
2019-03-27T13:59:19.520Z,23.10
2019-03-27T14:04:23.568Z,25.60
2019-03-27T14:09:35.202Z,26.90
2019-03-27T14:14:49.603Z,27.80
2019-03-27T14:19:44.631Z,28.40
2019-03-27T14:24:54.374Z,28.80
2019-03-27T14:29:58.900Z,29.20
2019-03-27T14:35:03.354Z,30.00
2019-03-27T14:40:14.743Z,30.50
2019-03-27T14:45:17.865Z,31.00
2019-03-27T14:50:25.019Z,32.20
2019-03-27T14:55:32.895Z,33.30
2019-03-27T15:00:44.256Z,34.30
2019-03-27T15:16:25.782Z,34.90
2019-03-27T15:21:30.548Z,35.10
2019-03-27T15:26:34.589Z,35.80
2019-03-27T15:31:40.039Z,36.50
2019-03-27T15:36:47.869Z,37.20
2019-03-27T15:47:26.506Z,39.20
2019-03-27T15:52:41.073Z,40.30
2019-03-27T15:57:43.006Z,40.60
2019-03-27T16:02:47.875Z,40.30
2019-03-27T16:07:57.488Z,41.20
2019-03-27T16:13:05.127Z,42.00
2019-03-27T16:18:12.561Z,42.40
2019-03-27T16:23:19.931Z,43.00
2019-03-27T16:28:26.993Z,43.50
2019-03-27T16:33:32.920Z,44.10
2019-03-27T16:38:38.406Z,44.40
2019-03-27T16:43:45.298Z,44.70
2019-03-27T16:48:51.835Z,45.20
2019-03-27T16:53:55.163Z,45.60
2019-03-27T16:58:58.842Z,45.90
2019-03-27T17:04:03.143Z,46.20
2019-03-27T17:09:08.750Z,46.70
2019-03-27T17:14:12.128Z,46.60
2019-03-27T17:19:15.646Z,46.80
2019-03-27T17:24:19.846Z,46.60
2019-03-27T17:29:23.779Z,46.40
2019-03-27T17:34:27.285Z,46.40
2019-03-27T17:39:32.268Z,46.40
2019-03-27T17:44:37.381Z,46.60
2019-03-27T17:49:41.065Z,46.60
2019-03-27T17:54:45.596Z,46.70
2019-03-27T17:59:49.278Z,46.80
2019-03-27T18:04:52.724Z,47.00
2019-03-27T18:09:58.526Z,46.70
2019-03-27T18:15:05.865Z,46.80
2019-03-27T18:20:09.568Z,46.80
2019-03-27T18:25:14.511Z,47.00
2019-03-27T18:30:21.448Z,47.30
2019-03-27T18:35:28.718Z,47.30
2019-03-27T18:40:54.577Z,47.40
2019-03-27T18:46:01.296Z,47.70
2019-03-27T18:51:07.525Z,47.90
2019-03-27T18:56:12.378Z,48.20
2019-03-27T19:01:17.689Z,48.60
2019-03-27T19:11:58.235Z,49.50
2019-03-27T19:17:02.386Z,49.60
2019-03-27T19:22:08.879Z,49.80
2019-03-27T19:27:25.892Z,50.30
2019-03-27T19:32:37.665Z,50.60
2019-03-27T19:37:41.023Z,50.60
2019-03-27T19:42:45.220Z,50.80
2019-03-27T19:47:51.633Z,51.20
2019-03-27T19:52:58.189Z,51.70
2019-03-27T19:58:02.473Z,52.10
2019-03-27T20:03:08.521Z,52.40
2019-03-27T20:08:11.899Z,53.20
2019-03-27T20:13:15.359Z,53.80
2019-03-27T20:18:22.043Z,54.70
2019-03-27T20:23:25.552Z,55.50
2019-03-27T20:28:31.922Z,56.20
2019-03-27T20:33:38.068Z,57.00
2019-03-27T20:38:41.433Z,57.70
2019-03-27T20:43:46.116Z,58.10
2019-03-27T20:48:58.956Z,58.50
2019-03-27T20:54:02.605Z,58.90
2019-03-27T20:59:08.253Z,59.30
2019-03-27T21:04:13.109Z,59.70
2019-03-27T21:09:19.561Z,60.00
2019-03-27T21:14:23.041Z,60.70
2019-03-27T21:19:29.621Z,61.30
2019-03-27T21:24:39.185Z,62.30
2019-03-27T21:29:42.562Z,63.10
2019-03-27T21:34:54.199Z,63.90
2019-03-27T21:40:17.913Z,64.50
2019-03-27T21:45:23.895Z,65.20
2019-03-27T21:50:31.118Z,66.00
2019-03-27T21:55:43.154Z,66.60
2019-03-27T22:00:59.613Z,67.30
2019-03-27T22:06:00.470Z,67.80
2019-03-27T22:11:04.743Z,68.50
2019-03-27T22:16:10.131Z,69.10
2019-03-27T22:21:15.906Z,69.60
2019-03-27T22:26:21.111Z,70.00
2019-03-27T22:31:36.972Z,70.50
2019-03-27T22:36:42.512Z,71.10
2019-03-27T22:41:49.744Z,71.50
2019-03-27T22:46:54.921Z,72.00
2019-03-27T22:51:59.011Z,72.40
2019-03-27T22:57:04.391Z,73.00
2019-03-27T23:02:10.341Z,73.30
2019-03-27T23:07:22.603Z,73.60
2019-03-27T23:12:36.194Z,74.30
